createdAt,value
2018-06-20T00:00:14.441Z,22.40
2018-06-20T00:01:18.589Z,22.40
2018-06-20T00:02:22.763Z,22.40
2018-06-20T00:04:30.614Z,22.40
2018-06-20T00:05:34.761Z,22.40
2018-06-20T00:07:42.870Z,22.30
2018-06-20T00:08:52.629Z,22.30
2018-06-20T00:09:56.733Z,22.30
2018-06-20T00:11:00.863Z,22.30
2018-06-20T00:12:04.993Z,22.30
2018-06-20T00:13:09.196Z,22.30
2018-06-20T00:14:13.274Z,22.30
2018-06-20T00:15:17.395Z,22.30
2018-06-20T00:16:21.456Z,22.30
2018-06-20T00:17:25.563Z,22.20
2018-06-20T00:18:29.729Z,22.20
2018-06-20T00:19:34.504Z,22.20
2018-06-20T00:20:38.545Z,22.20
2018-06-20T00:22:46.424Z,22.20
2018-06-20T00:23:50.630Z,22.20
2018-06-20T00:24:54.698Z,22.10
2018-06-20T00:25:58.858Z,22.10
2018-06-20T00:27:02.973Z,22.10
2018-06-20T00:28:07.149Z,22.10
2018-06-20T00:29:11.184Z,22.10
2018-06-20T00:30:15.300Z,22.00
2018-06-20T00:31:19.415Z,22.00
2018-06-20T00:32:23.534Z,22.00
2018-06-20T00:33:27.705Z,22.00
2018-06-20T00:34:31.785Z,22.00
2018-06-20T00:35:35.889Z,22.00
2018-06-20T00:36:40.059Z,22.00
2018-06-20T00:37:44.221Z,22.00
2018-06-20T00:38:48.305Z,22.00
2018-06-20T00:39:52.429Z,22.00
2018-06-20T00:40:56.500Z,22.00
2018-06-20T00:42:00.674Z,22.00
2018-06-20T00:43:04.793Z,22.00
2018-06-20T00:44:09.015Z,22.00
2018-06-20T00:46:16.962Z,22.00
2018-06-20T00:47:21.106Z,22.00
2018-06-20T00:48:25.167Z,22.00
2018-06-20T00:49:29.266Z,22.00
2018-06-20T00:50:33.453Z,22.00
2018-06-20T00:51:37.581Z,21.90
2018-06-20T00:52:41.747Z,22.00
2018-06-20T00:53:46.013Z,21.90
2018-06-20T00:54:50.134Z,21.90
2018-06-20T00:56:05.635Z,21.90
2018-06-20T00:57:09.778Z,21.90
2018-06-20T00:58:14.029Z,21.90
2018-06-20T00:59:18.113Z,21.90
2018-06-20T01:00:22.237Z,21.90
2018-06-20T01:01:26.330Z,21.90
2018-06-20T01:02:30.526Z,21.90
2018-06-20T01:03:34.640Z,21.90
2018-06-20T01:04:38.813Z,21.90
2018-06-20T01:05:43.005Z,21.90
2018-06-20T01:06:47.112Z,21.80
2018-06-20T01:07:51.237Z,21.80
2018-06-20T01:08:56.625Z,21.80
2018-06-20T01:10:00.723Z,21.80
2018-06-20T01:11:04.847Z,21.80
2018-06-20T01:12:08.911Z,21.80
2018-06-20T01:14:16.658Z,21.80
2018-06-20T01:15:20.795Z,21.80
2018-06-20T01:16:24.892Z,21.70
2018-06-20T01:17:29.035Z,21.70
2018-06-20T01:19:37.144Z,21.70
2018-06-20T01:20:41.235Z,21.70
2018-06-20T01:22:49.073Z,21.60
2018-06-20T01:23:53.149Z,21.60
2018-06-20T01:24:57.291Z,21.60
2018-06-20T01:26:01.381Z,21.60
2018-06-20T01:27:05.550Z,21.60
2018-06-20T01:28:15.841Z,21.60
2018-06-20T01:29:25.892Z,21.60
2018-06-20T01:30:36.096Z,21.60
2018-06-20T01:31:46.269Z,21.50
2018-06-20T01:32:50.552Z,21.50
2018-06-20T01:33:54.757Z,21.50
2018-06-20T01:34:58.887Z,21.50
2018-06-20T01:36:03.023Z,21.50
2018-06-20T01:38:17.384Z,21.50
2018-06-20T01:39:21.490Z,21.50
2018-06-20T01:40:25.621Z,21.50
2018-06-20T01:41:29.689Z,21.50
2018-06-20T01:42:33.816Z,21.50
2018-06-20T01:43:37.919Z,21.50
2018-06-20T01:44:42.111Z,21.50
2018-06-20T01:45:46.327Z,21.50
2018-06-20T01:46:50.466Z,21.50
2018-06-20T01:47:54.615Z,21.50
2018-06-20T01:48:58.726Z,21.50
2018-06-20T01:50:02.880Z,21.50
2018-06-20T01:51:07.005Z,21.40
2018-06-20T01:52:11.046Z,21.50
2018-06-20T01:53:15.144Z,21.50
2018-06-20T01:54:19.192Z,21.50
2018-06-20T01:55:23.291Z,21.40
2018-06-20T01:56:27.464Z,21.40
2018-06-20T01:57:31.543Z,21.40
2018-06-20T01:58:35.693Z,21.40
2018-06-20T01:59:39.790Z,21.40
2018-06-20T02:00:43.953Z,21.40
2018-06-20T02:01:48.115Z,21.40
2018-06-20T02:02:52.606Z,21.40
2018-06-20T02:03:56.712Z,21.40
2018-06-20T02:05:00.844Z,21.40
2018-06-20T02:06:05.036Z,21.40
2018-06-20T02:07:09.228Z,21.40
2018-06-20T02:09:17.112Z,21.40
2018-06-20T02:10:21.565Z,21.40
2018-06-20T02:11:26.252Z,21.40
2018-06-20T02:12:30.368Z,21.40
2018-06-20T02:13:34.549Z,21.30
2018-06-20T02:14:38.635Z,21.30
2018-06-20T02:15:42.787Z,21.30
2018-06-20T02:16:47.004Z,21.30
2018-06-20T02:17:51.167Z,21.30
2018-06-20T02:18:55.307Z,21.30
2018-06-20T02:19:59.555Z,21.30
2018-06-20T02:21:03.719Z,21.30
2018-06-20T02:22:07.819Z,21.30
2018-06-20T02:23:11.967Z,21.30
2018-06-20T02:24:16.077Z,21.30
2018-06-20T02:25:20.126Z,21.30
2018-06-20T02:26:24.223Z,21.30
2018-06-20T02:27:28.320Z,21.30
2018-06-20T02:28:32.475Z,21.30
2018-06-20T02:29:36.577Z,21.20
2018-06-20T02:30:40.704Z,21.20
2018-06-20T02:31:44.846Z,21.20
2018-06-20T02:32:48.972Z,21.20
2018-06-20T02:33:53.272Z,21.20
2018-06-20T02:34:57.368Z,21.20
2018-06-20T02:36:05.721Z,21.20
2018-06-20T02:37:09.808Z,21.20
2018-06-20T02:38:13.927Z,21.20
2018-06-20T02:39:18.309Z,21.20
2018-06-20T02:40:22.467Z,21.10
2018-06-20T02:41:26.638Z,21.10
2018-06-20T02:42:30.698Z,21.10
2018-06-20T02:43:34.794Z,21.10
2018-06-20T02:44:38.914Z,21.10
2018-06-20T02:45:42.991Z,21.10
2018-06-20T02:46:47.065Z,21.10
2018-06-20T02:47:51.261Z,21.10
2018-06-20T02:48:55.807Z,21.10
2018-06-20T02:50:00.453Z,21.10
2018-06-20T02:51:04.657Z,21.10
2018-06-20T02:52:08.828Z,21.10
2018-06-20T02:53:12.936Z,21.10
2018-06-20T02:54:17.052Z,21.10
2018-06-20T02:55:21.300Z,21.10
2018-06-20T02:56:25.388Z,21.00
2018-06-20T02:57:29.536Z,21.00
2018-06-20T02:59:37.405Z,21.00
2018-06-20T03:00:41.543Z,21.00
2018-06-20T03:01:45.679Z,21.00
2018-06-20T03:02:49.964Z,21.00
2018-06-20T03:03:54.124Z,21.00
2018-06-20T03:04:58.260Z,20.90
2018-06-20T03:06:02.451Z,20.90
2018-06-20T03:07:06.588Z,20.90
2018-06-20T03:08:10.699Z,20.90
2018-06-20T03:09:20.397Z,20.90
2018-06-20T03:10:24.501Z,20.90
2018-06-20T03:11:28.683Z,20.90
2018-06-20T03:12:32.809Z,20.90
2018-06-20T03:13:36.969Z,20.80
2018-06-20T03:14:41.161Z,20.80
2018-06-20T03:15:45.242Z,20.80
2018-06-20T03:16:49.540Z,20.80
2018-06-20T03:17:53.868Z,20.80
2018-06-20T03:20:01.661Z,20.80
2018-06-20T03:21:05.872Z,20.80
2018-06-20T03:22:09.997Z,20.80
2018-06-20T03:23:14.109Z,20.80
2018-06-20T03:24:18.233Z,20.70
2018-06-20T03:25:22.324Z,20.70
2018-06-20T03:26:26.402Z,20.70
2018-06-20T03:27:30.587Z,20.70
2018-06-20T03:29:38.453Z,20.70
2018-06-20T03:30:42.591Z,20.70
2018-06-20T03:31:46.961Z,20.70
2018-06-20T03:32:51.138Z,20.70
2018-06-20T03:33:55.294Z,20.70
2018-06-20T03:34:59.443Z,20.70
2018-06-20T03:36:03.567Z,20.70
2018-06-20T03:37:07.693Z,20.60
2018-06-20T03:38:11.834Z,20.70
2018-06-20T03:39:15.950Z,20.60
2018-06-20T03:40:20.045Z,20.60
2018-06-20T03:41:24.245Z,20.60
2018-06-20T03:42:28.345Z,20.60
2018-06-20T03:44:36.189Z,20.60
2018-06-20T03:45:40.292Z,20.60
2018-06-20T03:46:44.369Z,20.60
2018-06-20T03:47:48.498Z,20.60
2018-06-20T03:48:52.565Z,20.60
2018-06-20T03:49:56.648Z,20.60
2018-06-20T03:51:00.792Z,20.60
2018-06-20T03:52:04.893Z,20.60
2018-06-20T03:53:09.060Z,20.60
2018-06-20T03:54:13.181Z,20.60
2018-06-20T03:55:17.311Z,20.60
2018-06-20T03:56:21.410Z,20.60
2018-06-20T03:57:25.573Z,20.60
2018-06-20T03:58:29.715Z,20.60
2018-06-20T03:59:33.854Z,20.60
2018-06-20T04:01:41.694Z,20.60
2018-06-20T04:02:45.728Z,20.60
2018-06-20T04:03:49.876Z,20.60
2018-06-20T04:04:54.014Z,20.60
2018-06-20T04:05:58.223Z,20.60
2018-06-20T04:07:02.327Z,20.60
2018-06-20T04:08:06.649Z,20.60
2018-06-20T04:09:12.550Z,20.60
2018-06-20T04:10:16.680Z,20.60
2018-06-20T04:11:20.757Z,20.60
2018-06-20T04:12:24.960Z,20.60
2018-06-20T04:13:29.240Z,20.60
2018-06-20T04:14:33.417Z,20.60
2018-06-20T04:15:37.764Z,20.60
2018-06-20T04:16:41.858Z,20.60
2018-06-20T04:17:45.952Z,20.60
2018-06-20T04:19:53.793Z,20.60
2018-06-20T04:20:57.924Z,20.60
2018-06-20T04:22:02.114Z,20.60
2018-06-20T04:23:06.258Z,20.60
2018-06-20T04:24:10.392Z,20.60
2018-06-20T04:25:14.578Z,20.60
2018-06-20T04:26:18.712Z,20.60
2018-06-20T04:27:22.820Z,20.60
2018-06-20T04:28:26.967Z,20.60
2018-06-20T04:30:34.800Z,20.60
2018-06-20T04:31:38.922Z,20.60
2018-06-20T04:32:43.044Z,20.70
2018-06-20T04:33:47.915Z,20.70
2018-06-20T04:34:52.102Z,20.70
2018-06-20T04:35:56.202Z,20.70
2018-06-20T04:37:00.452Z,20.70
2018-06-20T04:38:04.652Z,20.70
2018-06-20T04:39:10.176Z,20.70
2018-06-20T04:40:14.224Z,20.70
2018-06-20T04:41:18.370Z,20.70
2018-06-20T04:42:22.489Z,20.70
2018-06-20T04:43:26.649Z,20.70
2018-06-20T04:44:30.795Z,20.70
2018-06-20T04:45:34.973Z,20.70
2018-06-20T04:46:39.142Z,20.70
2018-06-20T04:47:43.275Z,20.70
2018-06-20T04:48:47.664Z,20.70
2018-06-20T04:49:51.749Z,20.80
2018-06-20T04:50:55.854Z,20.80
2018-06-20T04:51:59.987Z,20.80
2018-06-20T04:53:04.139Z,20.80
2018-06-20T04:54:08.311Z,20.80
2018-06-20T04:55:12.445Z,20.80
2018-06-20T04:56:16.589Z,20.80
2018-06-20T04:57:20.682Z,20.80
2018-06-20T04:58:24.768Z,20.80
2018-06-20T04:59:28.917Z,20.90
2018-06-20T05:00:33.021Z,20.90
2018-06-20T05:01:37.184Z,20.90
2018-06-20T05:02:41.256Z,20.90
2018-06-20T05:03:45.400Z,20.90
2018-06-20T05:04:49.563Z,20.90
2018-06-20T05:05:53.684Z,20.90
2018-06-20T05:06:57.742Z,20.90
2018-06-20T05:08:01.992Z,21.00
2018-06-20T05:10:14.855Z,21.00
2018-06-20T05:11:18.963Z,21.00
2018-06-20T05:12:23.114Z,21.00
2018-06-20T05:13:27.311Z,21.00
2018-06-20T05:14:31.396Z,21.10
2018-06-20T05:15:35.623Z,21.10
2018-06-20T05:16:39.758Z,21.10
2018-06-20T05:17:43.899Z,21.10
2018-06-20T05:18:48.027Z,21.10
2018-06-20T05:19:52.066Z,21.10
2018-06-20T05:20:56.150Z,21.10
2018-06-20T05:22:00.354Z,21.20
2018-06-20T05:23:04.417Z,21.20
2018-06-20T05:24:08.681Z,21.20
2018-06-20T05:25:12.879Z,21.20
2018-06-20T05:26:16.976Z,21.20
2018-06-20T05:28:24.789Z,21.30
2018-06-20T05:29:28.878Z,21.30
2018-06-20T05:31:36.732Z,21.30
2018-06-20T05:32:40.812Z,21.40
2018-06-20T05:33:44.934Z,21.40
2018-06-20T05:34:49.036Z,21.40
2018-06-20T05:35:53.149Z,21.40
2018-06-20T05:36:57.357Z,21.50
2018-06-20T05:38:01.514Z,21.50
2018-06-20T05:39:08.278Z,21.50
2018-06-20T05:40:12.417Z,21.50
2018-06-20T05:41:16.511Z,21.50
2018-06-20T05:42:20.627Z,21.60
2018-06-20T05:43:24.762Z,21.60
2018-06-20T05:44:28.979Z,21.60
2018-06-20T05:45:33.086Z,21.60
2018-06-20T05:46:37.244Z,21.60
2018-06-20T05:47:41.611Z,21.60
2018-06-20T05:48:46.042Z,21.70
2018-06-20T05:49:50.180Z,21.70
2018-06-20T05:50:54.377Z,21.70
2018-06-20T05:51:58.581Z,21.70
2018-06-20T05:53:02.654Z,21.80
2018-06-20T05:54:07.032Z,21.80
2018-06-20T05:55:11.267Z,21.80
2018-06-20T05:56:15.559Z,21.80
2018-06-20T05:57:19.703Z,21.80
2018-06-20T05:58:23.891Z,21.90
2018-06-20T05:59:28.152Z,21.90
2018-06-20T06:00:32.331Z,21.90
2018-06-20T06:01:36.401Z,21.90
2018-06-20T06:02:40.486Z,22.00
2018-06-20T06:03:44.626Z,22.00
2018-06-20T06:04:48.676Z,22.00
2018-06-20T06:07:08.780Z,22.00
2018-06-20T06:08:12.932Z,22.10
2018-06-20T06:09:17.019Z,22.10
2018-06-20T06:10:21.087Z,22.10
2018-06-20T06:11:25.198Z,22.20
2018-06-20T06:12:29.411Z,22.20
2018-06-20T06:13:33.486Z,22.20
2018-06-20T06:14:37.703Z,22.20
2018-06-20T06:15:42.128Z,22.20
2018-06-20T06:16:46.462Z,22.30
2018-06-20T06:17:50.453Z,22.30
2018-06-20T06:18:54.606Z,22.30
2018-06-20T06:19:58.781Z,22.30
2018-06-20T06:21:02.994Z,22.40
2018-06-20T06:22:07.092Z,22.40
2018-06-20T06:23:11.243Z,22.40
2018-06-20T06:24:15.333Z,22.50
2018-06-20T06:25:19.498Z,22.50
2018-06-20T06:26:23.607Z,22.50
2018-06-20T06:27:27.748Z,22.50
2018-06-20T06:28:31.903Z,22.60
2018-06-20T06:29:36.017Z,22.60
2018-06-20T06:30:40.213Z,22.60
2018-06-20T06:31:44.330Z,22.70
2018-06-20T06:32:48.474Z,22.70
2018-06-20T06:33:52.613Z,22.70
2018-06-20T06:34:56.995Z,22.80
2018-06-20T06:36:01.148Z,22.80
2018-06-20T06:37:05.283Z,22.80
2018-06-20T06:38:09.422Z,22.80
2018-06-20T06:39:13.573Z,22.90
2018-06-20T06:40:17.670Z,22.90
2018-06-20T06:41:21.770Z,22.90
2018-06-20T06:42:25.899Z,23.00
2018-06-20T06:43:30.002Z,23.00
2018-06-20T06:44:34.177Z,23.00
2018-06-20T06:45:38.269Z,23.00
2018-06-20T06:46:45.330Z,23.10
2018-06-20T06:47:49.487Z,23.10
2018-06-20T06:48:53.635Z,23.10
2018-06-20T06:49:57.824Z,23.20
2018-06-20T06:51:01.917Z,23.20
2018-06-20T06:52:06.067Z,23.20
2018-06-20T06:53:10.277Z,23.20
2018-06-20T06:54:14.526Z,23.30
2018-06-20T06:56:22.587Z,23.30
2018-06-20T06:57:26.723Z,23.30
2018-06-20T06:58:30.900Z,23.40
2018-06-20T06:59:36.026Z,23.40
2018-06-20T07:00:40.199Z,23.40
2018-06-20T07:01:44.341Z,23.50
2018-06-20T07:03:52.262Z,23.50
2018-06-20T07:04:56.418Z,23.60
2018-06-20T07:06:00.621Z,23.60
2018-06-20T07:07:04.706Z,23.60
2018-06-20T07:08:08.928Z,23.70
2018-06-20T07:09:13.140Z,23.70
2018-06-20T07:10:17.284Z,23.70
2018-06-20T07:11:21.563Z,23.70
2018-06-20T07:12:25.801Z,23.80
2018-06-20T07:13:29.971Z,23.80
2018-06-20T07:14:34.183Z,23.80
2018-06-20T07:15:38.356Z,23.80
2018-06-20T07:16:42.563Z,23.90
2018-06-20T07:17:46.602Z,23.90
2018-06-20T07:18:50.745Z,23.90
2018-06-20T07:19:54.891Z,24.00
2018-06-20T07:20:58.984Z,24.00
2018-06-20T07:22:03.057Z,24.00
2018-06-20T07:23:07.189Z,24.10
2018-06-20T07:24:11.440Z,24.10
2018-06-20T07:25:15.551Z,24.10
2018-06-20T07:26:19.620Z,24.10
2018-06-20T07:27:23.718Z,24.20
2018-06-20T07:28:27.872Z,24.10
2018-06-20T07:30:35.729Z,24.30
2018-06-20T07:31:39.916Z,24.30
2018-06-20T07:32:44.055Z,24.30
2018-06-20T07:33:48.175Z,24.30
2018-06-20T07:34:52.590Z,24.40
2018-06-20T07:35:56.749Z,24.40
2018-06-20T07:37:00.896Z,24.40
2018-06-20T07:38:04.998Z,24.40
2018-06-20T07:39:09.257Z,24.50
2018-06-20T07:40:13.416Z,24.60
2018-06-20T07:41:17.751Z,24.60
2018-06-20T07:42:21.933Z,24.60
2018-06-20T07:43:26.094Z,24.60
2018-06-20T07:44:30.250Z,24.70
2018-06-20T07:45:34.477Z,24.70
2018-06-20T07:46:38.632Z,24.80
2018-06-20T07:47:42.791Z,24.80
2018-06-20T07:48:46.867Z,24.80
2018-06-20T07:49:50.941Z,24.90
2018-06-20T07:51:58.829Z,24.90
2018-06-20T07:53:03.020Z,25.00
2018-06-20T07:54:07.169Z,25.00
2018-06-20T07:56:15.035Z,25.10
2018-06-20T07:57:19.168Z,25.10
2018-06-20T07:58:28.687Z,25.10
2018-06-20T07:59:38.145Z,25.20
2018-06-20T08:00:47.682Z,25.30
2018-06-20T08:02:08.586Z,25.30
2018-06-20T08:03:18.477Z,25.30
2018-06-20T08:04:27.938Z,25.40
2018-06-20T08:05:37.346Z,25.40
2018-06-20T08:07:56.031Z,25.50
2018-06-20T08:09:05.629Z,25.60
2018-06-20T08:10:15.160Z,25.60
2018-06-20T08:11:24.816Z,25.70
2018-06-20T08:12:34.193Z,25.70
2018-06-20T08:14:46.347Z,25.80
2018-06-20T08:15:55.976Z,25.80
2018-06-20T08:17:05.484Z,25.90
2018-06-20T08:19:24.064Z,26.00
2018-06-20T08:20:28.253Z,26.00
2018-06-20T08:21:32.354Z,26.00
2018-06-20T08:22:36.413Z,26.10
2018-06-20T08:23:40.612Z,26.10
2018-06-20T08:25:54.197Z,26.20
2018-06-20T08:26:58.374Z,26.30
2018-06-20T08:28:02.583Z,26.30
2018-06-20T08:29:06.732Z,26.40
2018-06-20T08:30:10.838Z,26.40
2018-06-20T08:31:14.935Z,26.50
2018-06-20T08:32:19.220Z,26.60
2018-06-20T08:33:23.508Z,26.60
2018-06-20T08:34:27.619Z,26.60
2018-06-20T08:36:36.871Z,26.80
2018-06-20T08:37:40.947Z,26.80
2018-06-20T08:38:45.094Z,26.90
2018-06-20T08:39:49.241Z,26.90
2018-06-20T08:40:53.341Z,27.00
2018-06-20T08:43:01.209Z,27.10
2018-06-20T08:44:05.368Z,27.10
2018-06-20T08:45:09.466Z,27.20
2018-06-20T08:46:13.674Z,27.30
2018-06-20T08:47:17.870Z,27.30
2018-06-20T08:48:21.995Z,27.40
2018-06-20T08:49:26.151Z,27.40
2018-06-20T08:50:30.559Z,27.50
2018-06-20T08:51:34.693Z,27.50
2018-06-20T08:53:42.619Z,27.60
2018-06-20T08:54:46.888Z,27.70
2018-06-20T08:55:50.988Z,27.70
2018-06-20T08:56:55.075Z,27.80
2018-06-20T08:57:59.299Z,27.90
2018-06-20T08:59:03.434Z,27.90
2018-06-20T09:00:07.817Z,27.90
2018-06-20T09:01:11.986Z,28.00
2018-06-20T09:02:19.193Z,28.00
2018-06-20T09:03:23.640Z,28.10
2018-06-20T09:05:34.833Z,28.10
2018-06-20T09:06:44.398Z,28.20
2018-06-20T09:07:53.905Z,28.30
2018-06-20T09:09:03.444Z,28.30
2018-06-20T09:10:13.064Z,28.40
2018-06-20T09:11:22.429Z,28.40
2018-06-20T09:12:31.988Z,28.40
2018-06-20T09:13:45.419Z,28.50
2018-06-20T09:16:03.964Z,28.60
2018-06-20T09:17:13.375Z,28.70
2018-06-20T09:18:22.894Z,28.80
2018-06-20T09:19:47.141Z,28.90
2018-06-20T09:20:51.266Z,29.00
2018-06-20T09:21:55.408Z,29.10
2018-06-20T09:22:59.951Z,29.10
2018-06-20T09:24:04.185Z,29.20
2018-06-20T09:25:08.297Z,29.30
2018-06-20T09:26:12.535Z,29.40
2018-06-20T09:27:16.813Z,29.40
2018-06-20T09:28:20.944Z,29.50
2018-06-20T09:29:25.048Z,29.60
2018-06-20T09:30:29.255Z,29.70
2018-06-20T09:31:33.902Z,29.80
2018-06-20T09:32:37.982Z,30.00
2018-06-20T09:33:42.458Z,30.00
2018-06-20T09:34:46.723Z,30.10
2018-06-20T09:35:50.850Z,30.20
2018-06-20T09:36:55.013Z,30.30
2018-06-20T09:37:59.150Z,30.30
2018-06-20T09:39:03.838Z,30.40
2018-06-20T09:40:07.921Z,30.40
2018-06-20T09:41:12.117Z,30.50
2018-06-20T09:42:16.348Z,30.60
2018-06-20T09:43:20.567Z,30.60
2018-06-20T09:44:25.267Z,30.70
2018-06-20T09:45:29.393Z,30.80
2018-06-20T09:46:33.537Z,30.80
2018-06-20T09:47:37.680Z,30.90
2018-06-20T09:48:41.959Z,31.00
2018-06-20T09:49:46.179Z,31.00
2018-06-20T09:50:57.419Z,31.10
2018-06-20T09:52:01.491Z,31.20
2018-06-20T09:53:05.601Z,31.30
2018-06-20T09:54:09.724Z,31.30
2018-06-20T09:55:13.834Z,31.30
2018-06-20T09:57:21.625Z,31.40
2018-06-20T09:58:25.720Z,31.50
2018-06-20T09:59:35.046Z,31.50
2018-06-20T10:00:44.651Z,31.60
2018-06-20T10:01:54.240Z,31.70
2018-06-20T10:03:03.695Z,31.70
2018-06-20T10:05:13.828Z,31.80
2018-06-20T10:07:32.228Z,31.90
2018-06-20T10:08:41.679Z,32.00
2018-06-20T10:11:00.287Z,32.10
2018-06-20T10:12:09.655Z,32.10
2018-06-20T10:13:18.248Z,32.20
2018-06-20T10:15:26.036Z,32.30
2018-06-20T10:16:31.144Z,32.30
2018-06-20T10:17:35.294Z,32.40
2018-06-20T10:18:39.442Z,32.40
2018-06-20T10:19:43.588Z,32.40
2018-06-20T10:20:47.751Z,32.50
2018-06-20T10:21:51.907Z,32.50
2018-06-20T10:22:57.580Z,32.60
2018-06-20T10:24:01.766Z,32.60
2018-06-20T10:25:05.917Z,32.60
2018-06-20T10:26:10.119Z,32.60
2018-06-20T10:27:14.269Z,32.70
2018-06-20T10:28:18.421Z,32.70
2018-06-20T10:29:22.540Z,32.70
2018-06-20T10:30:26.688Z,32.70
2018-06-20T10:31:30.884Z,32.80
2018-06-20T10:32:35.003Z,32.80
2018-06-20T10:33:39.339Z,32.80
2018-06-20T10:34:43.460Z,32.90
2018-06-20T10:35:47.501Z,32.90
2018-06-20T10:36:51.606Z,33.00
2018-06-20T10:37:55.809Z,33.00
2018-06-20T10:38:59.980Z,33.00
2018-06-20T10:40:04.298Z,33.20
2018-06-20T10:41:08.345Z,33.20
2018-06-20T10:42:12.520Z,33.30
2018-06-20T10:43:16.783Z,33.40
2018-06-20T10:44:20.932Z,33.50
2018-06-20T10:45:30.515Z,33.60
2018-06-20T10:46:39.983Z,33.60
2018-06-20T10:47:45.509Z,33.80
2018-06-20T10:48:49.691Z,33.90
2018-06-20T10:49:53.814Z,34.00
2018-06-20T10:50:57.907Z,34.10
2018-06-20T10:52:02.090Z,34.20
2018-06-20T10:53:06.191Z,34.30
2018-06-20T10:54:10.281Z,34.40
2018-06-20T10:55:15.682Z,34.40
2018-06-20T10:56:25.134Z,34.60
2018-06-20T10:57:34.549Z,34.70
2018-06-20T10:58:44.090Z,34.90
2018-06-20T10:59:53.615Z,35.00
2018-06-20T11:01:03.191Z,35.20
2018-06-20T11:02:12.780Z,35.30
2018-06-20T11:03:22.349Z,35.50
2018-06-20T11:04:31.906Z,35.70
2018-06-20T11:05:41.495Z,35.80
2018-06-20T11:06:51.013Z,36.00
2018-06-20T11:08:00.612Z,36.20
2018-06-20T11:09:12.696Z,36.30
2018-06-20T11:10:22.201Z,36.50
2018-06-20T11:11:31.701Z,36.60
2018-06-20T11:12:41.057Z,36.80
2018-06-20T11:13:45.205Z,36.90
2018-06-20T11:14:49.344Z,37.00
2018-06-20T11:15:53.497Z,37.10
2018-06-20T11:16:57.640Z,37.20
2018-06-20T11:18:01.769Z,37.40
2018-06-20T11:19:05.892Z,37.40
2018-06-20T11:20:15.698Z,37.50
2018-06-20T11:21:19.817Z,37.60
2018-06-20T11:22:23.910Z,37.70
2018-06-20T11:24:32.067Z,37.90
2018-06-20T11:25:36.227Z,38.00
2018-06-20T11:26:40.287Z,38.00
2018-06-20T11:27:44.439Z,38.00
2018-06-20T11:28:48.524Z,38.00
2018-06-20T11:30:56.292Z,38.00
2018-06-20T11:32:00.408Z,38.00
2018-06-20T11:33:04.470Z,38.00
2018-06-20T11:34:08.639Z,38.00
2018-06-20T11:35:13.027Z,38.10
2018-06-20T11:36:17.171Z,38.10
2018-06-20T11:37:21.266Z,38.20
2018-06-20T11:38:25.451Z,38.20
2018-06-20T11:39:29.625Z,38.30
2018-06-20T11:40:33.757Z,38.40
2018-06-20T11:42:41.539Z,38.50
2018-06-20T11:43:45.645Z,38.60
2018-06-20T11:44:49.799Z,38.70
2018-06-20T11:45:59.168Z,38.80
2018-06-20T11:47:08.615Z,38.90
2018-06-20T11:48:12.803Z,39.00
2018-06-20T11:49:16.952Z,39.10
2018-06-20T11:50:21.006Z,39.10
2018-06-20T11:51:25.196Z,39.20
2018-06-20T11:52:34.803Z,39.30
2018-06-20T11:53:38.914Z,39.40
2018-06-20T11:54:43.065Z,39.50
2018-06-20T11:55:47.822Z,39.60
2018-06-20T11:56:51.933Z,39.60
2018-06-20T11:58:00.301Z,39.70
2018-06-20T11:59:09.839Z,39.70
2018-06-20T12:00:19.492Z,39.80
2018-06-20T12:01:29.027Z,39.90
2018-06-20T12:02:38.566Z,40.00
2018-06-20T12:03:48.131Z,40.00
2018-06-20T12:04:57.566Z,40.20
2018-06-20T12:06:07.093Z,40.20
2018-06-20T12:07:16.541Z,40.30
2018-06-20T12:08:26.175Z,40.30
2018-06-20T12:09:35.789Z,40.40
2018-06-20T12:10:45.340Z,40.50
2018-06-20T12:11:54.861Z,40.50
2018-06-20T12:13:04.409Z,40.60
2018-06-20T12:14:14.180Z,40.70
2018-06-20T12:15:23.551Z,40.70
2018-06-20T12:16:28.073Z,40.80
2018-06-20T12:17:37.543Z,40.90
2018-06-20T12:18:47.025Z,40.90
2018-06-20T12:19:56.593Z,41.00
2018-06-20T12:21:05.904Z,41.00
2018-06-20T12:22:15.450Z,41.10
2018-06-20T12:23:25.043Z,41.20
2018-06-20T12:24:34.532Z,41.20
2018-06-20T12:25:44.085Z,41.30
2018-06-20T12:26:53.560Z,41.30
2018-06-20T12:28:03.139Z,41.30
2018-06-20T12:29:12.571Z,41.40
2018-06-20T12:30:21.920Z,41.40
2018-06-20T12:31:31.463Z,41.40
2018-06-20T12:33:50.154Z,41.50
2018-06-20T12:34:59.664Z,41.50
2018-06-20T12:36:09.054Z,41.50
2018-06-20T12:37:18.610Z,41.60
2018-06-20T12:38:28.097Z,41.60
2018-06-20T12:39:31.452Z,41.70
2018-06-20T12:40:41.044Z,41.70
2018-06-20T12:41:50.591Z,41.80
2018-06-20T12:43:00.405Z,41.80
2018-06-20T12:44:10.431Z,41.80
2018-06-20T12:45:17.313Z,41.90
2018-06-20T12:46:27.433Z,42.00
2018-06-20T12:47:35.799Z,42.10
2018-06-20T12:48:39.941Z,42.10
2018-06-20T12:49:50.545Z,42.20
2018-06-20T12:50:54.667Z,42.30
2018-06-20T12:51:58.805Z,42.30
2018-06-20T12:53:02.984Z,42.40
2018-06-20T12:54:07.115Z,42.50
2018-06-20T12:55:11.282Z,42.50
2018-06-20T12:56:15.355Z,42.60
2018-06-20T12:57:19.441Z,42.60
2018-06-20T12:58:23.657Z,42.60
2018-06-20T12:59:27.739Z,42.70
2018-06-20T13:00:31.867Z,42.70
2018-06-20T13:01:35.981Z,42.80
2018-06-20T13:02:40.117Z,42.90
2018-06-20T13:03:44.212Z,42.90
2018-06-20T13:04:48.469Z,42.90
2018-06-20T13:05:52.554Z,43.00
2018-06-20T13:06:56.656Z,43.00
2018-06-20T13:08:00.811Z,43.10
2018-06-20T13:09:07.843Z,43.20
2018-06-20T13:10:11.913Z,43.20
2018-06-20T13:11:16.637Z,43.20
2018-06-20T13:12:20.876Z,43.20
2018-06-20T13:13:25.005Z,43.30
2018-06-20T13:14:29.114Z,43.30
2018-06-20T13:15:33.258Z,43.30
2018-06-20T13:16:37.429Z,43.40
2018-06-20T13:17:41.533Z,43.40
2018-06-20T13:18:56.244Z,43.50
2018-06-20T13:20:00.379Z,43.50
2018-06-20T13:21:04.544Z,43.50
2018-06-20T13:22:08.712Z,43.60
2018-06-20T13:23:12.842Z,43.60
2018-06-20T13:24:16.917Z,43.70
2018-06-20T13:25:20.965Z,43.70
2018-06-20T13:26:25.401Z,43.70
2018-06-20T13:27:34.847Z,43.70
2018-06-20T13:28:38.919Z,43.70
2018-06-20T13:30:52.253Z,43.80
2018-06-20T13:32:01.878Z,43.80
2018-06-20T13:33:11.494Z,43.80
2018-06-20T13:34:21.048Z,43.80
2018-06-20T13:35:30.582Z,43.80
2018-06-20T13:36:40.100Z,43.90
2018-06-20T13:38:58.822Z,43.90
2018-06-20T13:40:08.356Z,44.00
2018-06-20T13:41:17.992Z,44.00
2018-06-20T13:42:27.472Z,44.00
2018-06-20T13:43:36.954Z,43.90
2018-06-20T13:44:41.060Z,44.00
2018-06-20T13:45:50.467Z,44.00
2018-06-20T13:46:59.893Z,44.00
2018-06-20T13:48:09.360Z,43.90
2018-06-20T13:49:13.513Z,44.00
2018-06-20T13:50:17.608Z,44.00
2018-06-20T13:51:21.690Z,43.90
2018-06-20T13:52:25.779Z,43.80
2018-06-20T13:53:29.893Z,43.80
2018-06-20T13:54:34.006Z,43.70
2018-06-20T13:55:38.170Z,43.50
2018-06-20T13:56:42.304Z,43.50
2018-06-20T13:57:46.574Z,43.30
2018-06-20T13:58:50.712Z,43.20
2018-06-20T13:59:54.859Z,43.10
2018-06-20T14:00:58.994Z,43.00
2018-06-20T14:02:03.084Z,42.90
2018-06-20T14:03:07.251Z,42.80
2018-06-20T14:04:11.401Z,42.80
2018-06-20T14:05:15.581Z,42.60
2018-06-20T14:06:19.700Z,42.50
2018-06-20T14:07:23.909Z,42.50
2018-06-20T14:08:27.970Z,42.30
2018-06-20T14:09:32.116Z,42.20
2018-06-20T14:10:36.241Z,42.10
2018-06-20T14:11:40.975Z,42.00
2018-06-20T14:12:45.123Z,41.90
2018-06-20T14:13:49.316Z,41.80
2018-06-20T14:14:53.427Z,41.70
2018-06-20T14:15:57.641Z,41.60
2018-06-20T14:17:01.863Z,41.40
2018-06-20T14:18:05.949Z,41.40
2018-06-20T14:19:10.055Z,41.30
2018-06-20T14:21:19.451Z,41.10
2018-06-20T14:22:23.618Z,41.00
2018-06-20T14:23:27.736Z,40.80
2018-06-20T14:24:31.918Z,40.70
2018-06-20T14:25:36.037Z,40.60
2018-06-20T14:26:41.227Z,40.50
2018-06-20T14:27:45.399Z,40.40
2018-06-20T14:29:53.370Z,40.20
2018-06-20T14:31:02.695Z,40.10
2018-06-20T14:32:12.208Z,40.00
2018-06-20T14:33:21.624Z,39.90
2018-06-20T14:35:32.813Z,39.70
2018-06-20T14:36:42.283Z,39.70
2018-06-20T14:37:51.730Z,39.50
2018-06-20T14:39:01.112Z,39.30
2018-06-20T14:40:10.749Z,39.20
2018-06-20T14:41:15.784Z,39.00
2018-06-20T14:42:25.336Z,38.80
2018-06-20T14:43:34.865Z,38.70
2018-06-20T14:44:39.140Z,38.60
2018-06-20T14:45:48.812Z,38.50
2018-06-20T14:46:52.962Z,38.40
2018-06-20T14:47:57.171Z,38.30
2018-06-20T14:49:01.231Z,38.20
2018-06-20T14:50:05.350Z,38.20
2018-06-20T14:51:09.427Z,38.20